createdAt,value
2017-10-25T00:02:13.708Z,7.13
2017-10-25T00:04:42.790Z,8.30
2017-10-25T00:07:11.098Z,6.97
2017-10-25T00:09:39.410Z,8.67
2017-10-25T00:12:07.710Z,7.80
2017-10-25T00:14:36.022Z,8.87
2017-10-25T00:17:05.094Z,7.80
2017-10-25T00:19:33.407Z,8.30
2017-10-25T00:22:01.710Z,8.63
2017-10-25T00:24:30.036Z,7.77
2017-10-25T00:26:59.101Z,8.67
2017-10-25T00:29:27.422Z,8.03
2017-10-25T00:31:56.485Z,7.97
2017-10-25T00:34:24.793Z,6.90
2017-10-25T00:36:53.873Z,6.83
2017-10-25T00:39:22.949Z,5.87
2017-10-25T00:41:51.267Z,6.37
2017-10-25T00:44:20.339Z,5.60
2017-10-25T00:46:49.409Z,5.50
2017-10-25T00:49:17.718Z,5.70
2017-10-25T00:51:46.796Z,6.60
2017-10-25T00:54:15.112Z,7.33
2017-10-25T00:56:43.423Z,7.13
2017-10-25T00:59:11.754Z,7.57
2017-10-25T01:01:40.814Z,7.67
2017-10-25T01:04:09.135Z,7.63
2017-10-25T01:06:37.451Z,7.70
2017-10-25T01:09:05.773Z,7.83
2017-10-25T01:11:34.839Z,7.93
2017-10-25T01:14:03.162Z,9.43
2017-10-25T01:16:31.477Z,7.70
2017-10-25T01:18:59.790Z,8.70
2017-10-25T01:21:28.101Z,9.70
2017-10-25T01:23:56.425Z,9.23
2017-10-25T01:26:24.726Z,8.70
2017-10-25T01:28:53.812Z,10.00
2017-10-25T01:31:22.121Z,9.03
2017-10-25T01:33:50.429Z,8.60
2017-10-25T01:36:18.796Z,9.30
2017-10-25T01:38:47.101Z,8.80
2017-10-25T01:41:15.397Z,9.80
2017-10-25T01:43:43.706Z,9.53
2017-10-25T01:46:12.009Z,10.77
2017-10-25T01:48:41.150Z,12.57
2017-10-25T01:51:10.230Z,10.43
2017-10-25T01:53:38.561Z,10.50
2017-10-25T01:56:06.865Z,10.07
2017-10-25T01:58:35.206Z,11.00
2017-10-25T02:01:03.517Z,10.83
2017-10-25T02:03:31.827Z,11.53
2017-10-25T02:06:00.159Z,11.30
2017-10-25T02:08:28.480Z,10.27
2017-10-25T02:10:56.784Z,9.20
2017-10-25T02:13:25.851Z,8.93
2017-10-25T02:15:54.161Z,9.60
2017-10-25T02:18:23.279Z,10.10
2017-10-25T02:20:51.602Z,9.73
2017-10-25T02:23:19.925Z,9.83
2017-10-25T02:25:49.130Z,9.70
2017-10-25T02:28:17.432Z,10.73
2017-10-25T02:30:46.514Z,8.80
2017-10-25T02:33:14.807Z,9.17
2017-10-25T02:35:43.113Z,10.33
2017-10-25T02:38:11.410Z,9.10
2017-10-25T02:40:40.488Z,8.10
2017-10-25T02:43:09.556Z,9.03
2017-10-25T02:45:37.853Z,9.10
2017-10-25T02:48:06.149Z,10.23
2017-10-25T02:50:35.231Z,10.47
2017-10-25T02:53:04.313Z,9.13
2017-10-25T02:55:32.630Z,9.70
2017-10-25T02:58:01.701Z,8.83
2017-10-25T03:00:30.775Z,9.20
2017-10-25T03:02:59.072Z,8.40
2017-10-25T03:05:27.368Z,8.27
2017-10-25T03:07:56.440Z,8.90
2017-10-25T03:10:24.750Z,8.63
2017-10-25T03:12:53.068Z,9.57
2017-10-25T03:15:21.370Z,9.40
2017-10-25T03:17:49.681Z,9.10
2017-10-25T03:20:17.999Z,8.77
2017-10-25T03:22:46.309Z,8.90
2017-10-25T03:25:15.386Z,8.60
2017-10-25T03:27:43.690Z,8.20
2017-10-25T03:30:12.755Z,8.93
2017-10-25T03:32:41.070Z,8.53
2017-10-25T03:35:10.134Z,8.80
2017-10-25T03:37:38.446Z,9.73
2017-10-25T03:40:06.745Z,9.40
2017-10-25T03:42:35.064Z,8.47
2017-10-25T03:45:03.364Z,9.20
2017-10-25T03:47:32.449Z,9.10
2017-10-25T03:50:00.737Z,8.20
2017-10-25T03:52:29.810Z,9.30
2017-10-25T03:54:58.127Z,8.90
2017-10-25T03:57:26.446Z,7.47
2017-10-25T03:59:54.738Z,8.27
2017-10-25T04:02:23.075Z,7.83
2017-10-25T04:04:51.371Z,7.93
2017-10-25T04:07:19.690Z,8.53
2017-10-25T04:09:48.761Z,9.70
2017-10-25T04:12:17.060Z,6.93
2017-10-25T04:14:46.117Z,8.63
2017-10-25T04:17:14.431Z,7.93
2017-10-25T04:19:43.505Z,7.00
2017-10-25T04:22:11.834Z,7.93
2017-10-25T04:24:40.134Z,6.80
2017-10-25T04:27:08.438Z,6.50
2017-10-25T04:29:36.738Z,7.77
2017-10-25T04:32:05.813Z,7.97
2017-10-25T04:34:34.104Z,7.80
2017-10-25T04:37:02.426Z,8.37
2017-10-25T04:39:30.725Z,7.90
2017-10-25T04:41:59.029Z,8.13
2017-10-25T04:44:27.326Z,8.40
2017-10-25T04:46:56.406Z,8.40
2017-10-25T04:49:24.702Z,8.87
2017-10-25T04:51:53.022Z,7.80
2017-10-25T04:54:21.328Z,8.30
2017-10-25T04:56:49.660Z,7.90
2017-10-25T04:59:17.969Z,8.67
2017-10-25T05:01:46.299Z,8.80
2017-10-25T05:04:14.593Z,9.00
2017-10-25T05:06:42.897Z,8.80
2017-10-25T05:09:11.199Z,9.20
2017-10-25T05:11:39.507Z,7.30
2017-10-25T05:14:07.813Z,7.93
2017-10-25T05:16:36.150Z,7.97
2017-10-25T05:19:04.471Z,8.40
2017-10-25T05:21:32.784Z,7.80
2017-10-25T05:24:01.102Z,7.70
2017-10-25T05:26:29.421Z,7.60
2017-10-25T05:28:57.722Z,6.80
2017-10-25T05:31:26.809Z,7.77
2017-10-25T05:33:55.129Z,7.60
2017-10-25T05:36:23.437Z,8.13
2017-10-25T05:38:51.749Z,7.40
2017-10-25T05:41:20.048Z,8.40
2017-10-25T05:43:49.122Z,7.40
2017-10-25T05:46:17.421Z,7.00
2017-10-25T05:48:45.737Z,7.40
2017-10-25T05:51:14.030Z,8.50
2017-10-25T05:53:42.342Z,7.23
2017-10-25T05:56:11.406Z,8.03
2017-10-25T05:58:39.714Z,7.90
2017-10-25T06:01:08.778Z,7.73
2017-10-25T06:03:37.091Z,8.40
2017-10-25T06:06:05.381Z,8.70
2017-10-25T06:08:33.689Z,7.53
2017-10-25T06:11:01.990Z,7.20
2017-10-25T06:13:30.311Z,8.90
2017-10-25T06:15:58.605Z,7.50
2017-10-25T06:18:26.915Z,8.50
2017-10-25T06:20:55.213Z,8.13
2017-10-25T06:23:23.535Z,8.87
2017-10-25T06:25:51.834Z,8.60
2017-10-25T06:28:20.149Z,7.83
2017-10-25T06:30:49.208Z,8.90
2017-10-25T06:33:17.526Z,8.33
2017-10-25T06:35:46.593Z,8.13
2017-10-25T06:38:14.903Z,9.00
2017-10-25T06:40:43.961Z,9.30
2017-10-25T06:43:12.273Z,9.87
2017-10-25T06:45:41.332Z,9.17
2017-10-25T06:48:09.641Z,7.97
2017-10-25T06:50:38.702Z,8.40
2017-10-25T06:53:07.012Z,8.60
2017-10-25T06:55:36.072Z,8.73
2017-10-25T06:58:04.397Z,9.27
2017-10-25T07:00:32.718Z,10.30
2017-10-25T07:03:01.809Z,9.60
2017-10-25T07:05:30.108Z,9.03
2017-10-25T07:07:58.416Z,8.60
2017-10-25T07:10:27.478Z,8.47
2017-10-25T07:12:55.799Z,8.90
2017-10-25T07:15:24.088Z,7.70
2017-10-25T07:17:52.384Z,7.57
2017-10-25T07:20:20.673Z,6.33
2017-10-25T07:22:48.982Z,8.27
2017-10-25T07:25:17.273Z,7.43
2017-10-25T07:27:46.353Z,7.33
2017-10-25T07:30:14.649Z,6.33
2017-10-25T07:32:43.713Z,7.37
2017-10-25T07:35:12.002Z,6.40
2017-10-25T07:37:40.324Z,6.80
2017-10-25T07:40:08.626Z,8.70
2017-10-25T07:42:36.941Z,9.20
2017-10-25T07:45:06.026Z,8.90
2017-10-25T07:47:34.321Z,8.77
2017-10-25T07:50:03.386Z,9.47
2017-10-25T07:52:31.690Z,8.03
2017-10-25T07:55:00.822Z,9.77
2017-10-25T07:57:29.125Z,9.27
2017-10-25T07:59:57.457Z,6.87
2017-10-25T08:02:25.761Z,8.30
2017-10-25T08:04:54.070Z,8.10
2017-10-25T08:07:22.390Z,7.07
2017-10-25T08:09:50.688Z,6.60
2017-10-25T08:12:18.985Z,6.93
2017-10-25T08:14:47.296Z,5.50
2017-10-25T08:17:15.598Z,6.43
2017-10-25T08:19:43.896Z,7.10
2017-10-25T08:22:12.184Z,7.03
2017-10-25T08:24:40.485Z,6.63
2017-10-25T08:27:08.785Z,6.40
2017-10-25T08:29:37.888Z,7.40
2017-10-25T08:32:06.954Z,5.93
2017-10-25T08:34:35.249Z,6.80
2017-10-25T08:37:04.323Z,4.63
2017-10-25T08:39:32.636Z,5.30
2017-10-25T08:42:00.944Z,4.90
2017-10-25T08:44:29.245Z,5.50
2017-10-25T08:46:57.550Z,4.33
2017-10-25T08:49:26.624Z,4.60
2017-10-25T08:51:54.927Z,4.87
2017-10-25T08:54:23.998Z,4.00
2017-10-25T08:56:52.299Z,3.80
2017-10-25T08:59:21.369Z,4.00
2017-10-25T09:01:49.665Z,3.33
2017-10-25T09:04:18.747Z,2.40
2017-10-25T09:06:47.051Z,3.30
2017-10-25T09:09:16.130Z,2.13
2017-10-25T09:11:44.430Z,1.87
2017-10-25T09:14:12.729Z,2.00
2017-10-25T09:16:41.021Z,1.90
2017-10-25T09:19:09.338Z,1.90
2017-10-25T09:21:38.400Z,1.67
2017-10-25T09:24:06.709Z,1.00
2017-10-25T09:26:35.017Z,1.37
2017-10-25T09:29:03.326Z,0.97
2017-10-25T09:31:31.617Z,1.40
2017-10-25T09:33:59.936Z,1.50
2017-10-25T09:36:28.997Z,1.20
2017-10-25T09:38:57.306Z,1.20
2017-10-25T09:41:26.367Z,1.00
2017-10-25T09:43:54.702Z,0.77
2017-10-25T09:46:22.998Z,1.40
2017-10-25T09:48:51.297Z,0.80
2017-10-25T09:51:19.612Z,1.27
2017-10-25T09:53:47.924Z,1.13
2017-10-25T09:56:16.265Z,1.40
2017-10-25T09:58:44.572Z,1.20
2017-10-25T10:01:12.888Z,1.50
2017-10-25T10:03:41.194Z,1.27
2017-10-25T10:06:10.285Z,3.90
2017-10-25T10:08:38.605Z,6.03
2017-10-25T10:11:06.910Z,3.50
2017-10-25T10:13:35.237Z,1.40
2017-10-25T10:16:03.538Z,1.40
2017-10-25T10:18:31.846Z,1.60
2017-10-25T10:21:00.154Z,1.80
2017-10-25T10:23:29.225Z,1.97
2017-10-25T10:25:57.532Z,2.40
2017-10-25T10:28:26.593Z,1.60
2017-10-25T10:30:54.896Z,1.87
2017-10-25T10:33:23.956Z,2.57
2017-10-25T10:35:52.271Z,2.27
2017-10-25T10:38:21.336Z,1.93
2017-10-25T10:40:49.655Z,2.53
2017-10-25T10:43:17.950Z,2.30
2017-10-25T10:45:46.270Z,2.53
2017-10-25T10:48:14.564Z,2.20
2017-10-25T10:50:43.638Z,3.00
2017-10-25T10:53:11.938Z,2.57
2017-10-25T10:55:41.004Z,2.67
2017-10-25T10:58:09.338Z,2.77
2017-10-25T11:00:37.644Z,2.53
2017-10-25T11:03:05.942Z,2.73
2017-10-25T11:05:34.276Z,2.90
2017-10-25T11:08:02.581Z,2.20
2017-10-25T11:10:30.868Z,2.37
2017-10-25T11:12:59.990Z,2.50
2017-10-25T11:15:29.052Z,2.20
2017-10-25T11:17:57.351Z,2.23
2017-10-25T11:20:25.657Z,2.73
2017-10-25T11:22:53.963Z,3.40
2017-10-25T11:25:22.261Z,2.33
2017-10-25T11:27:50.561Z,2.30
2017-10-25T11:30:18.863Z,2.87
2017-10-25T11:32:47.962Z,2.57
2017-10-25T11:35:16.298Z,2.70
2017-10-25T11:37:44.608Z,2.50
2017-10-25T11:40:13.665Z,2.70
2017-10-25T11:42:41.973Z,2.80
2017-10-25T11:45:11.043Z,2.70
2017-10-25T11:47:39.341Z,2.80
2017-10-25T11:50:08.407Z,2.30
2017-10-25T11:52:36.718Z,3.17
2017-10-25T11:55:05.787Z,2.10
2017-10-25T11:57:34.107Z,3.13
2017-10-25T12:00:02.401Z,2.80
2017-10-25T12:02:30.706Z,2.33
2017-10-25T12:04:58.997Z,2.77
2017-10-25T12:07:27.312Z,2.93
2017-10-25T12:09:55.606Z,2.53
2017-10-25T12:12:23.928Z,2.87
2017-10-25T12:14:52.216Z,3.03
2017-10-25T12:17:20.516Z,3.30
2017-10-25T12:19:48.809Z,2.90
2017-10-25T12:22:17.115Z,2.60
2017-10-25T12:24:45.424Z,3.30
2017-10-25T12:27:13.743Z,2.67
2017-10-25T12:29:42.051Z,2.93
2017-10-25T12:32:10.361Z,2.87
2017-10-25T12:34:39.437Z,3.20
2017-10-25T12:37:07.742Z,2.60
2017-10-25T12:39:36.807Z,2.60
2017-10-25T12:42:05.128Z,3.00
2017-10-25T12:44:33.425Z,2.57
2017-10-25T12:47:01.728Z,3.03
2017-10-25T12:49:30.024Z,3.37
2017-10-25T12:51:58.313Z,3.27
2017-10-25T12:54:28.577Z,3.13
2017-10-25T12:56:56.876Z,3.47
2017-10-25T12:59:25.202Z,2.73
2017-10-25T13:01:54.266Z,3.10
2017-10-25T13:04:23.338Z,3.27
2017-10-25T13:06:51.641Z,3.13
2017-10-25T13:09:19.948Z,2.90
2017-10-25T13:11:49.493Z,3.00
2017-10-25T13:14:20.501Z,2.90
2017-10-25T13:16:52.465Z,2.80
2017-10-25T13:19:20.764Z,3.50
2017-10-25T13:21:49.079Z,3.47
2017-10-25T13:24:17.391Z,2.97
2017-10-25T13:26:46.509Z,3.60
2017-10-25T13:29:14.820Z,2.93
2017-10-25T13:31:43.887Z,4.00
2017-10-25T13:34:12.190Z,3.40
2017-10-25T13:36:40.485Z,3.73
2017-10-25T13:39:08.790Z,3.67
2017-10-25T13:41:37.859Z,3.60
2017-10-25T13:44:06.168Z,3.77
2017-10-25T13:46:34.480Z,3.43
2017-10-25T13:49:02.793Z,3.90
2017-10-25T13:51:31.091Z,3.40
2017-10-25T13:54:00.164Z,3.27
2017-10-25T13:56:28.465Z,4.00
2017-10-25T13:58:57.538Z,3.80
2017-10-25T14:01:25.856Z,4.40
2017-10-25T14:03:54.178Z,4.33
2017-10-25T14:06:22.477Z,4.57
2017-10-25T14:08:51.562Z,4.13
2017-10-25T14:11:20.647Z,3.80
2017-10-25T14:13:48.948Z,4.20
2017-10-25T14:16:18.013Z,4.30
2017-10-25T14:18:46.326Z,4.60
2017-10-25T14:21:15.381Z,4.03
2017-10-25T14:23:43.690Z,4.57
2017-10-25T14:26:12.762Z,4.80
2017-10-25T14:28:53.564Z,4.67
2017-10-25T14:31:21.862Z,4.40
2017-10-25T14:33:50.189Z,4.80
2017-10-25T14:36:18.502Z,4.67
2017-10-25T14:38:46.826Z,4.37
2017-10-25T14:41:15.154Z,6.33
2017-10-25T14:43:44.226Z,4.40
2017-10-25T14:46:12.522Z,5.30
2017-10-25T14:48:41.594Z,5.00
2017-10-25T14:51:09.910Z,5.97
2017-10-25T14:53:38.225Z,6.07
2017-10-25T14:56:06.527Z,6.90
2017-10-25T14:58:34.862Z,5.90
2017-10-25T15:01:03.174Z,6.00
2017-10-25T15:03:31.502Z,6.17
2017-10-25T15:05:59.797Z,5.10
2017-10-25T15:08:28.109Z,5.40
2017-10-25T15:10:56.398Z,5.87
2017-10-25T15:13:25.468Z,5.63
2017-10-25T15:15:53.776Z,6.50
2017-10-25T15:18:22.913Z,5.73
2017-10-25T15:20:51.242Z,5.60
2017-10-25T15:23:19.555Z,5.20
2017-10-25T15:25:47.875Z,5.60
2017-10-25T15:28:16.186Z,5.67
2017-10-25T15:30:45.251Z,6.30
2017-10-25T15:33:13.562Z,5.80
2017-10-25T15:35:42.631Z,5.53
2017-10-25T15:38:10.942Z,5.50
2017-10-25T15:40:39.249Z,6.20
2017-10-25T15:43:07.549Z,6.67
2017-10-25T15:45:35.839Z,6.40
2017-10-25T15:48:04.137Z,5.53
2017-10-25T15:50:33.211Z,7.03
2017-10-25T15:53:01.517Z,6.10
2017-10-25T15:55:30.580Z,6.40
2017-10-25T15:57:58.912Z,6.20
2017-10-25T16:00:27.210Z,6.87
2017-10-25T16:02:55.502Z,5.30
2017-10-25T16:05:23.818Z,6.37
2017-10-25T16:07:52.879Z,6.40
2017-10-25T16:10:21.202Z,6.70
2017-10-25T16:12:49.499Z,5.97
2017-10-25T16:15:17.803Z,5.93
2017-10-25T16:17:46.100Z,5.43
2017-10-25T16:20:14.418Z,5.33
2017-10-25T16:22:42.718Z,6.10
2017-10-25T16:25:11.017Z,6.20
2017-10-25T16:27:39.313Z,6.73
2017-10-25T16:30:07.616Z,6.47
2017-10-25T16:32:35.916Z,6.53
2017-10-25T16:35:04.226Z,6.80
2017-10-25T16:37:32.533Z,6.40
2017-10-25T16:40:01.601Z,6.67
2017-10-25T16:42:29.913Z,7.43
2017-10-25T16:44:58.986Z,7.00
2017-10-25T16:47:27.287Z,7.33
2017-10-25T16:49:56.356Z,8.33
2017-10-25T16:52:24.650Z,7.80
2017-10-25T16:54:53.712Z,8.90
2017-10-25T16:57:22.005Z,8.20
2017-10-25T16:59:50.309Z,9.30
2017-10-25T17:02:18.596Z,8.70
2017-10-25T17:04:47.516Z,8.43
2017-10-25T17:07:15.813Z,8.37
2017-10-25T17:09:44.122Z,9.80
2017-10-25T17:12:12.428Z,10.83
2017-10-25T17:14:40.747Z,10.80
2017-10-25T17:17:09.082Z,10.57
2017-10-25T17:19:37.405Z,10.77
2017-10-25T17:22:05.726Z,12.60
2017-10-25T17:24:34.040Z,11.77
2017-10-25T17:27:02.341Z,12.17
2017-10-25T17:29:30.667Z,11.87
2017-10-25T17:31:58.982Z,11.97
2017-10-25T17:34:27.304Z,12.73
2017-10-25T17:36:55.613Z,14.13
2017-10-25T17:39:23.942Z,11.83
2017-10-25T17:41:53.013Z,9.83
2017-10-25T17:44:21.325Z,8.33
2017-10-25T17:46:50.380Z,9.83
2017-10-25T17:49:18.684Z,9.77
2017-10-25T17:51:47.758Z,12.10
2017-10-25T17:54:16.074Z,11.13
2017-10-25T17:56:45.149Z,10.93
2017-10-25T17:59:14.236Z,11.97
2017-10-25T18:01:42.552Z,12.80
2017-10-25T18:04:10.860Z,12.43
2017-10-25T18:06:39.162Z,12.97
2017-10-25T18:09:07.484Z,12.93
2017-10-25T18:11:35.790Z,15.13
2017-10-25T18:14:04.106Z,13.57
2017-10-25T18:16:32.415Z,15.90
2017-10-25T18:19:00.716Z,15.10
2017-10-25T18:21:29.034Z,18.23
2017-10-25T18:23:57.344Z,19.40
2017-10-25T18:26:25.661Z,20.93
2017-10-25T18:28:53.968Z,19.60
2017-10-25T18:31:22.286Z,21.70
2017-10-25T18:33:50.604Z,21.60
2017-10-25T18:36:18.935Z,22.53
2017-10-25T18:38:47.239Z,22.87
2017-10-25T18:41:15.564Z,23.60
2017-10-25T18:43:44.640Z,20.40
2017-10-25T18:46:13.482Z,22.57
2017-10-25T18:48:41.793Z,24.77
2017-10-25T18:51:10.140Z,21.60
2017-10-25T18:53:38.440Z,23.10
2017-10-25T18:56:06.764Z,23.30
2017-10-25T18:58:35.833Z,24.77
2017-10-25T19:01:04.143Z,22.60
2017-10-25T19:03:33.215Z,22.93
2017-10-25T19:06:01.549Z,22.80
2017-10-25T19:08:29.862Z,22.27
2017-10-25T19:10:58.171Z,20.27
2017-10-25T19:13:27.249Z,21.77
2017-10-25T19:15:56.330Z,22.60
2017-10-25T19:18:24.637Z,22.10
2017-10-25T19:20:53.734Z,20.77
2017-10-25T19:23:22.798Z,22.47
2017-10-25T19:25:51.122Z,21.73
2017-10-25T19:28:19.421Z,22.40
2017-10-25T19:30:47.735Z,24.97
2017-10-25T19:33:16.059Z,25.60
2017-10-25T19:35:44.378Z,23.30
2017-10-25T19:38:12.681Z,26.30
2017-10-25T19:40:41.786Z,29.70
2017-10-25T19:43:10.848Z,26.00
2017-10-25T19:45:39.157Z,28.47
2017-10-25T19:48:13.204Z,27.43
2017-10-25T19:50:41.509Z,26.80
2017-10-25T19:53:09.825Z,25.00
2017-10-25T19:55:38.895Z,28.47
2017-10-25T19:58:07.210Z,28.10
2017-10-25T20:00:35.536Z,28.37
2017-10-25T20:03:03.851Z,29.00
2017-10-25T20:05:32.175Z,31.30
2017-10-25T20:08:00.499Z,31.00
2017-10-25T20:10:29.577Z,30.00
2017-10-25T20:12:57.897Z,29.60
2017-10-25T20:15:26.197Z,29.00
2017-10-25T20:17:54.514Z,35.53
2017-10-25T20:20:22.836Z,31.83
2017-10-25T20:22:51.145Z,32.13
2017-10-25T20:25:19.453Z,33.33
2017-10-25T20:27:48.538Z,31.63
2017-10-25T20:30:16.855Z,33.97
2017-10-25T20:32:45.184Z,33.47
2017-10-25T20:35:13.490Z,30.60
2017-10-25T20:37:42.581Z,31.17
2017-10-25T20:40:10.897Z,33.10
2017-10-25T20:42:39.215Z,35.23
2017-10-25T20:45:07.527Z,32.63
2017-10-25T20:47:35.842Z,34.93
2017-10-25T20:50:04.159Z,35.67
2017-10-25T20:52:33.265Z,33.27
2017-10-25T20:55:02.900Z,36.23
2017-10-25T20:57:31.248Z,38.43
2017-10-25T21:00:00.340Z,37.23
2017-10-25T21:02:29.471Z,38.57
2017-10-25T21:04:57.786Z,39.27
2017-10-25T21:07:26.121Z,36.70
2017-10-25T21:09:54.436Z,38.93
2017-10-25T21:12:22.754Z,40.53
2017-10-25T21:14:51.837Z,39.47
2017-10-25T21:17:20.916Z,42.07
2017-10-25T21:19:49.231Z,37.83
2017-10-25T21:22:17.569Z,40.23
2017-10-25T21:24:45.867Z,39.70
2017-10-25T21:27:14.958Z,39.70
2017-10-25T21:29:43.279Z,39.10
2017-10-25T21:32:11.584Z,37.20
2017-10-25T21:34:39.893Z,35.43
2017-10-25T21:37:08.969Z,39.60
2017-10-25T21:39:37.277Z,41.40
2017-10-25T21:42:06.363Z,43.20
2017-10-25T21:44:35.448Z,39.00
2017-10-25T21:47:03.754Z,40.50
2017-10-25T21:49:32.105Z,40.53
2017-10-25T21:52:00.411Z,38.00
2017-10-25T21:54:28.726Z,35.43
2017-10-25T21:56:57.034Z,39.67
2017-10-25T21:59:25.354Z,36.70
2017-10-25T22:01:53.674Z,34.67
2017-10-25T22:04:22.013Z,38.13
2017-10-25T22:06:50.341Z,37.27
2017-10-25T22:09:18.656Z,38.10
2017-10-25T22:11:46.963Z,38.70
2017-10-25T22:14:15.277Z,40.90
2017-10-25T22:16:43.590Z,41.80
2017-10-25T22:19:11.907Z,35.40
2017-10-25T22:21:40.217Z,39.53
2017-10-25T22:24:09.298Z,32.97
2017-10-25T22:26:37.625Z,38.90
2017-10-25T22:29:05.935Z,33.47
2017-10-25T22:31:34.248Z,34.83
2017-10-25T22:34:03.334Z,30.47
2017-10-25T22:36:31.644Z,34.07
2017-10-25T22:38:59.960Z,32.40
2017-10-25T22:41:28.274Z,30.57
2017-10-25T22:43:57.349Z,33.07
2017-10-25T22:46:25.662Z,31.20
2017-10-25T22:48:53.975Z,30.40
2017-10-25T22:51:22.280Z,30.40
2017-10-25T22:53:50.590Z,29.67
2017-10-25T22:56:19.693Z,29.33
2017-10-25T22:58:48.017Z,28.00
2017-10-25T23:01:16.323Z,31.10
2017-10-25T23:03:45.415Z,29.50
2017-10-25T23:06:13.719Z,26.30
2017-10-25T23:08:42.043Z,34.20
2017-10-25T23:11:10.353Z,32.00
2017-10-25T23:13:38.697Z,29.63
2017-10-25T23:16:07.010Z,27.10
2017-10-25T23:18:36.089Z,29.17
2017-10-25T23:21:04.395Z,28.17
2017-10-25T23:23:33.477Z,28.50
2017-10-25T23:26:02.539Z,29.37
2017-10-25T23:28:30.849Z,31.93
2017-10-25T23:30:59.926Z,28.47
2017-10-25T23:33:28.232Z,26.73
2017-10-25T23:35:57.315Z,26.50
2017-10-25T23:38:26.394Z,26.37
2017-10-25T23:40:54.701Z,27.20
2017-10-25T23:43:23.787Z,30.17
2017-10-25T23:45:52.852Z,25.80
2017-10-25T23:48:21.170Z,25.80
2017-10-25T23:50:49.474Z,24.73
2017-10-25T23:53:17.780Z,26.10
2017-10-25T23:55:46.086Z,26.47
2017-10-25T23:58:15.183Z,22.10
